Pagina principale
METAR-TAF:

METAR-TAF

Aeroporti :

Aeroporto Internazionale Noi Bai

Hanoi, Vietnam

latitudine: 21-01N, longitudine: 105-48E, altezza: 6 m

Osservazione

Il bollettino è stato emesso 17 minuti fa, alle 07:00 UTC
Vento 5 kt da est/nord-est, variando fra nord/nord-est e est/sud-est
Temperature 34°C
Umidità 53%
Pressione 1012 hPa
Visibilità 10 km o più
Nubi sparse ad un'altezza di 4500 ft

METAR: VVNB 230700Z 07005KT 030V120 9999 SCT045 34/23 Q1012 NOSIG

Ora: 14:17 (07:17 UTC)

Previsione

Il bollettino è stato emesso 2 ore e 17 minuti fa, alle 05:00 UTC
Previsione valida dal 23 alle 06 UTC al 24 alle 06 UTC
Vento 8 kt da est/sud-est
Visibilità: 6000 m
Nubi sparse ad un'altezza di 2700 ft
Evoluzione graduale
dal 23 alle 17 UTC al 23 alle 18 UTC
Visibilità: 4000 m
foschia
Evoluzione graduale
dal 24 alle 01 UTC al 24 alle 02 UTC
Visibilità: 6000 m

TAF: VVNB 230500Z 2306/2406 11008KT 6000 SCT027 BECMG 2317/2318 4000 BR BECMG 2401/2402 6000 NSW

Osservazioni e previsioni meteorologiche di più di 4000 aeroporti (messaggi METAR e TAF).

Le stazioni disponibili sono rappresentate dai dischi gialli e rossi sulla carta.

Puntare il mouse per vedere il nome della stazione.

Clicca sopra per visualizzare le osservazioni e previsioni meteorologiche.

Per cambiare la mappa : fare clic sui pulsanti verdi con una croce nera per ingrandire, il pulsante verde con un trattino per diminuire, o sulla freccia verde per le mappe adiacenti.


METAR-TAF: